Latest Coastal Weather Observations for Hindmarsh Island

IDS60701

Issued at 2:21 am CST Sunday 30 August 2015 (issued every 10 minutes, with the page automatically refreshed every 10 minutes)

About coastal observations | Map of coastal stations | Coastal observations for SA | Marine services | Other Formats
Station Details ID: 023894 Name: HINDMARSH ISLAND AWS Lat: -35.52 Lon: 138.82 Height: 11.0 m
Data from the previous 72 hours. | See also: Recent months at Hindmarsh Island
Date/Time
CST
Temp

°C
Wind Pressure Rain
since 9am
mm
Weather Cloud Vis
km
Sea
Height
m
Swell
Dir
 
Speed
knots
Gust
knots
hPa Trend Height
m
Period
s
Dir
30/02:00am 5.7 ENE 10 12 1027.5 - 0.0 - - - - - - -
30/01:30am 5.8 NE 7 10 1027.8 - 0.0 - - - - - - -
30/01:00am 5.9 ENE 9 11 1028.0 - 0.0 - - - - - - -
30/12:30am 6.6 NE 6 8 1028.0 - 0.0 - - - - - - -
30/12:00am 6.1 NE 6 9 1028.1 - 0.0 - - - - - - -
 
Date/Time
CST
Temp

°C
Wind Pressure Rain
since 9am
mm
Weather Cloud Vis
km
Sea
Height
m
Swell
Dir
 
Speed
knots
Gust
knots
hPa Trend Height
m
Period
s
Dir
29/11:30pm 5.6 E 11 13 1027.9 - 0.0 - - - - - - -
29/11:00pm 6.4 E 9 12 1028.0 - 0.0 - - - - - - -
29/10:30pm 6.2 E 9 10 1028.2 - 0.0 - - - - - - -
29/10:00pm 7.7 ESE 11 14 1028.1 - 0.0 - - - - - - -
29/09:30pm 8.1 E 8 10 1028.2 - 0.0 - - - - - - -
29/09:00pm 8.9 E 9 13 1028.2 - 0.0 - - - - - - -
29/08:30pm 9.0 E 8 10 1028.1 - 0.0 - - - - - - -
29/08:00pm 10.6 SE 15 17 1027.8 - 0.0 - - - - - - -
29/07:30pm 8.7 E 10 12 1027.9 - 0.0 - - - - - - -
29/07:00pm 8.7 E 9 11 1027.8 - 0.0 - - - - - - -
29/06:30pm 10.5 SE 12 13 1027.6 - 0.0 - - - - - - -
29/06:00pm 10.5 SE 12 14 1027.3 - 0.0 - - - - - - -
29/05:30pm 10.5 SE 14 17 1027.2 - 0.0 - - - - - - -
29/05:00pm 10.7 SE 15 18 1027.0 - 0.0 - - - - - - -
29/04:30pm 11.2 SE 14 17 1027.1 - 0.0 - - - - - - -
29/04:00pm 11.4 SE 14 16 1027.0 - 0.0 - - - - - - -
29/03:30pm 11.7 SE 12 16 1027.1 - 0.0 - - - - - - -
29/03:00pm 11.7 SSE 12 15 1027.4 - 0.0 - - - - - - -
29/02:30pm 11.8 SSE 13 15 1027.7 - 0.0 - - - - - - -
29/02:00pm 10.6 SSE 12 15 1027.7 - 0.0 - - - - - - -
29/01:30pm 10.7 SSE 12 14 1027.8 - 0.0 - - - - - - -
29/01:00pm 11.1 SSE 11 14 1028.2 - 0.0 - - - - - - -
29/12:30pm 11.8 SE 6 10 1028.7 - 0.0 - - - - - - -
29/12:00pm 11.6 ESE 6 9 1029.0 - 0.0 - - - - - - -
29/11:30am 11.9 ESE 5 8 1029.5 - 0.0 - - - - - - -
29/11:00am 11.1 E 7 11 1029.7 - 0.0 - - - - - - -
29/10:30am 11.4 ENE 8 12 1029.9 - 0.0 - - - - - - -
29/10:00am 10.9 E 11 15 1029.8 - 0.0 - - - - - - -
29/09:30am 10.7 E 11 15 1029.8 - 0.0 - - - - - - -
29/09:00am 9.5 E 14 18 1029.8 - 0.0 Haze Clear 9 - - - -
29/08:30am 8.9 E 13 16 1029.8 - 0.0 - - - - - - -
29/08:00am 8.1 E 11 14 1029.4 - 0.0 - - - - - - -
29/07:30am 7.0 E 7 8 1029.0 - 0.0 - - - - - - -
29/07:00am 6.0 E 8 10 1028.7 - 0.0 - - - - - - -
29/06:30am 6.7 ESE 9 12 1028.4 - 0.0 - - - - - - -
29/06:00am 7.9 ESE 11 14 1027.9 - 0.0 - - - - - - -
29/05:30am 8.9 ESE 10 13 1027.7 - 0.0 - - - - - - -
29/05:00am 9.9 SE 14 16 1027.5 - 0.0 - - - - - - -
29/04:30am 10.4 SE 11 13 1027.3 - 0.0 - - - - - - -
29/04:00am 10.2 E 6 8 1027.4 - 0.0 - - - - - - -
29/03:30am 10.8 SE 10 14 1027.4 - 0.0 - - - - - - -
29/03:00am 10.9 SE 9 11 1027.5 - 0.0 - - - - - - -
29/02:30am 10.6 WSW 5 7 1027.8 - 0.0 - - - - - - -
29/02:00am 10.4 W 7 9 1028.0 - 0.0 - - - - - - -
29/01:30am 10.6 WSW 8 10 1028.2 - 0.0 - - - - - - -
29/01:00am 10.4 SW 6 11 1028.4 - 0.0 - - - - - - -
29/12:30am 10.3 SSW 7 8 1028.3 - 0.0 - - - - - - -
29/12:00am 10.4 SSW 8 9 1028.2 - 0.0 - - - - - - -
 
Date/Time
CST
Temp

°C
Wind Pressure Rain
since 9am
mm
Weather Cloud Vis
km
Sea
Height
m
Swell
Dir
 
Speed
knots
Gust
knots
hPa Trend Height
m
Period
s
Dir
28/11:30pm 10.9 SSW 8 9 1028.3 - 0.0 - - - - - - -
28/11:00pm 10.8 S 11 13 1028.4 - 0.0 - - - - - - -
28/10:30pm 11.1 S 12 14 1028.5 - 0.0 - - - - - - -
28/10:00pm 11.5 S 14 16 1028.5 - 0.0 - - - - - - -
28/09:30pm 11.9 S 11 14 1028.4 - 0.0 - - - - - - -
28/09:00pm 11.8 S 10 11 1028.6 - 0.0 - - - - - - -
28/08:30pm 11.7 S 9 11 1028.4 - 0.0 - - - - - - -
28/08:00pm 11.9 S 9 11 1028.3 - 0.0 - - - - - - -
28/07:30pm 11.8 S 9 11 1028.2 - 0.0 - - - - - - -
28/07:00pm 11.9 S 9 10 1028.1 - 0.0 - - - - - - -
28/06:30pm 11.7 S 7 8 1027.9 - 0.0 - - - - - - -
28/06:00pm 11.8 S 9 11 1027.7 - 0.0 - - - - - - -
28/05:30pm 11.8 S 10 11 1027.6 - 0.0 - - - - - - -
28/05:00pm 12.0 SSW 10 11 1027.6 - 0.0 - - - - - - -
28/04:30pm 12.3 S 9 11 1027.6 - 0.0 - - - - - - -
28/04:00pm 12.6 S 9 10 1027.6 - 0.0 - - - - - - -
28/03:30pm 13.3 S 6 7 1027.7 - 0.0 - - - - - - -
28/03:00pm 13.3 S 10 12 1027.9 - 0.0 - - - - - - -
28/02:30pm 13.4 S 10 13 1028.0 - 0.0 - - - - - - -
28/02:00pm 13.3 S 9 12 1028.1 - 0.0 - - - - - - -
28/01:30pm 13.0 S 10 12 1028.4 - 0.0 - - - - - - -
28/01:00pm 13.4 SSE 9 14 1028.6 - 0.0 - - - - - - -
28/12:30pm 12.7 SE 8 10 1029.0 - 0.0 - - - - - - -
28/12:00pm 13.3 SE 8 10 1029.4 - 0.0 - - - - - - -
28/11:30am 12.8 SE 7 9 1029.6 - 0.0 - - - - - - -
28/11:00am 12.6 ESE 6 9 1029.9 - 0.0 - - - - - - -
28/10:30am 12.1 E 6 8 1030.1 - 0.0 - - - - - - -
28/10:00am 12.9 E 8 11 1030.1 - 0.0 - - - - - - -
28/09:30am 12.3 SSE 9 11 1030.0 - 0.0 - - - - - - -
28/09:00am 12.1 SSE 11 13 1029.8 - 0.0 Fine Cloudy 10 - - - -
28/08:30am 11.9 SE 13 15 1029.6 - 0.0 - - - - - - -
28/08:00am 11.3 SE 13 16 1029.5 - 0.0 - - - - - - -
28/07:30am 11.1 SSE 15 17 1029.1 - 0.0 - - - - - - -
28/07:00am 11.1 SSE 18 21 1028.8 - 0.0 - - - - - - -
28/06:30am 11.1 SSE 19 21 1028.6 - 0.0 - - - - - - -
28/06:00am 11.6 SSE 13 17 1028.5 - 0.0 - - - - - - -
28/05:30am 11.6 SSE 13 16 1028.4 - 0.0 - - - - - - -
28/05:00am 11.6 SSE 13 16 1028.2 - 0.0 - - - - - - -
28/04:30am 11.6 SSE 14 17 1027.9 - 0.0 - - - - - - -
28/04:00am 11.3 SE 12 14 1027.7 - 0.0 - - - - - - -
28/03:30am 11.1 SSE 15 16 1027.7 - 0.0 - - - - - - -
28/03:00am 11.1 SSE 16 19 1027.8 - 0.0 - - - - - - -
28/02:30am 11.2 SSE 16 21 1027.9 - 0.0 - - - - - - -
28/02:00am 11.4 SSE 19 22 1027.7 - 0.0 - - - - - - -
28/01:30am 11.8 S 16 18 1027.8 - 0.0 - - - - - - -
28/01:00am 11.5 S 10 12 1027.9 - 0.0 - - - - - - -
28/12:30am 11.3 S 12 14 1028.0 - 0.0 - - - - - - -
28/12:00am 11.8 SSE 16 19 1027.9 - 0.0 - - - - - - -
 
Date/Time
CST
Temp

°C
Wind Pressure Rain
since 9am
mm
Weather Cloud Vis
km
Sea
Height
m
Swell
Dir
 
Speed
knots
Gust
knots
hPa Trend Height
m
Period
s
Dir
27/11:30pm 11.7 SSE 14 17 1028.1 - 0.0 - - - - - - -
27/11:00pm 11.8 S 15 17 1028.1 - 0.0 - - - - - - -
27/10:30pm 11.8 S 13 16 1028.2 - 0.0 - - - - - - -
27/10:00pm 11.6 SSW 12 14 1028.2 - 0.0 - - - - - - -
27/09:30pm 11.7 S 14 16 1028.2 - 0.0 - - - - - - -
27/09:00pm 11.8 S 15 18 1028.0 - 0.0 - - - - - - -
27/08:30pm 11.9 S 15 18 1028.0 - 0.0 - - - - - - -
27/08:00pm 12.1 S 15 17 1027.8 - 0.0 - - - - - - -
27/07:30pm 12.0 S 15 18 1027.5 - 0.0 - - - - - - -
27/07:00pm 12.2 S 15 18 1027.2 - 0.0 - - - - - - -
27/06:30pm 12.1 S 16 19 1026.9 - 0.0 - - - - - - -
27/06:00pm 11.9 S 13 16 1026.6 - 0.0 - - - - - - -
27/05:30pm 12.3 S 14 16 1026.3 - 0.0 - - - - - - -
27/05:00pm 12.4 SSW 14 17 1025.9 - 0.0 - - - - - - -
27/04:30pm 12.8 SSW 14 17 1025.8 - 0.0 - - - - - - -
27/04:00pm 13.0 SSW 16 19 1025.7 - 0.0 - - - - - - -
27/03:30pm 13.3 S 17 20 1025.4 - 0.0 - - - - - - -
27/03:00pm 13.2 S 17 20 1025.3 - 0.0 - - - - - - -
27/02:30pm 13.5 S 18 20 1025.3 - 0.0 - - - - - - -
27/02:00pm 13.2 S 18 21 1025.3 - 0.0 - - - - - - -
27/01:30pm 12.8 S 16 22 1025.5 - 0.0 - - - - - - -
27/01:00pm 14.2 S 16 20 1025.6 - 0.0 - - - - - - -
27/12:30pm 14.5 SSW 15 19 1025.9 - 0.0 - - - - - - -
27/12:00pm 13.8 S 16 19 1025.8 - 0.0 - - - - - - -
27/11:30am 14.2 SSW 14 17 1025.9 - 0.0 - - - - - - -
27/11:00am 13.8 SW 14 16 1026.0 - 0.0 - - - - - - -
27/10:30am 13.7 SSW 12 15 1025.9 - 0.0 - - - - - - -
27/10:00am 12.8 SSW 13 15 1025.8 - 0.0 - - - - - - -
27/09:30am 12.2 SW 12 15 1025.7 - 0.0 - - - - - - -
27/09:00am 11.4 SW 11 14 1025.5 - 0.0 Fine Partly cloudy 12 - - - -
27/08:30am 10.9 W 7 9 1025.4 - 0.0 - - - - - - -
27/08:00am 10.4 W 6 7 1025.2 - 0.0 - - - - - - -
27/07:30am 10.1 W 9 11 1024.8 - 0.0 - - - - - - -
27/07:00am 10.0 W 8 11 1024.4 - 0.0 - - - - - - -
27/06:30am 10.0 W 9 13 1024.1 - 0.0 - - - - - - -
27/06:00am 9.0 W 7 9 1023.7 - 0.0 - - - - - - -
27/05:30am 8.3 WNW 6 8 1023.5 - 0.0 - - - - - - -
27/05:00am 8.0 WNW 7 8 1023.2 - 0.0 - - - - - - -
27/04:30am 7.4 WNW 6 7 1023.1 - 0.0 - - - - - - -
27/04:00am 7.4 WNW 6 7 1023.1 - 0.0 - - - - - - -
27/03:30am 7.6 WNW 7 8 1023.0 - 0.0 - - - - - - -
27/03:00am 6.9 WNW 5 7 1023.1 - 0.0 - - - - - - -
27/02:30am 6.8 WNW 6 7 1023.3 - 0.0 - - - - - - -

Other Formats:

Comma delimited format used in spreadsheet applications
http://www.bom.gov.au/fwo/IDS60701/IDS60701.94677.axf

JavaScript Object Notation format (JSON) in row-major order
http://www.bom.gov.au/fwo/IDS60701/IDS60701.94677.json